sensor_id;sensor_type;location;lat;lon;timestamp;P1;durP1;ratioP1;P2;durP2;ratioP2
32894;SDS011;19251;49.484;8.260;2023-07-02T00:00:30;3.75;;;2.00;;
32894;SDS011;19251;49.484;8.260;2023-07-02T00:05:33;2.92;;;1.85;;
32894;SDS011;19251;49.484;8.260;2023-07-02T00:10:35;2.25;;;1.50;;
32894;SDS011;19251;49.484;8.260;2023-07-02T00:15:37;3.30;;;2.05;;
32894;SDS011;19251;49.484;8.260;2023-07-02T00:20:39;1.25;;;1.08;;
32894;SDS011;19251;49.484;8.260;2023-07-02T00:25:43;2.20;;;1.73;;
32894;SDS011;19251;49.484;8.260;2023-07-02T00:30:45;2.97;;;1.45;;
32894;SDS011;19251;49.484;8.260;2023-07-02T00:40:50;2.45;;;1.77;;
32894;SDS011;19251;49.484;8.260;2023-07-02T00:45:52;2.30;;;1.75;;
32894;SDS011;19251;49.484;8.260;2023-07-02T00:50:55;5.93;;;1.60;;
32894;SDS011;19251;49.484;8.260;2023-07-02T01:00:59;2.33;;;1.40;;
32894;SDS011;19251;49.484;8.260;2023-07-02T01:06:02;1.90;;;1.45;;
32894;SDS011;19251;49.484;8.260;2023-07-02T01:11:05;2.28;;;1.48;;
32894;SDS011;19251;49.484;8.260;2023-07-02T01:16:07;1.45;;;1.23;;
32894;SDS011;19251;49.484;8.260;2023-07-02T01:21:10;2.22;;;1.40;;
32894;SDS011;19251;49.484;8.260;2023-07-02T01:26:12;3.40;;;1.90;;
32894;SDS011;19251;49.484;8.260;2023-07-02T01:31:14;2.47;;;1.50;;
32894;SDS011;19251;49.484;8.260;2023-07-02T01:36:16;3.92;;;2.20;;
32894;SDS011;19251;49.484;8.260;2023-07-02T01:41:18;6.60;;;2.50;;
32894;SDS011;19251;49.484;8.260;2023-07-02T01:46:21;7.00;;;1.73;;
32894;SDS011;19251;49.484;8.260;2023-07-02T01:51:23;1.80;;;1.50;;
32894;SDS011;19251;49.484;8.260;2023-07-02T01:56:25;2.55;;;1.75;;
32894;SDS011;19251;49.484;8.260;2023-07-02T02:01:28;4.35;;;2.30;;
32894;SDS011;19251;49.484;8.260;2023-07-02T02:06:30;3.25;;;2.00;;
32894;SDS011;19251;49.484;8.260;2023-07-02T02:11:33;4.45;;;2.42;;
32894;SDS011;19251;49.484;8.260;2023-07-02T02:16:36;4.60;;;2.85;;
32894;SDS011;19251;49.484;8.260;2023-07-02T02:21:38;5.60;;;2.80;;
32894;SDS011;19251;49.484;8.260;2023-07-02T02:26:40;7.53;;;3.25;;
32894;SDS011;19251;49.484;8.260;2023-07-02T02:31:43;4.22;;;2.33;;
32894;SDS011;19251;49.484;8.260;2023-07-02T02:36:46;5.03;;;3.20;;
32894;SDS011;19251;49.484;8.260;2023-07-02T02:41:49;6.90;;;3.70;;
32894;SDS011;19251;49.484;8.260;2023-07-02T02:46:54;6.57;;;3.80;;
32894;SDS011;19251;49.484;8.260;2023-07-02T02:51:57;6.25;;;3.70;;
32894;SDS011;19251;49.484;8.260;2023-07-02T02:57:00;8.57;;;4.05;;
32894;SDS011;19251;49.484;8.260;2023-07-02T03:02:02;5.32;;;3.37;;
32894;SDS011;19251;49.484;8.260;2023-07-02T03:07:05;11.40;;;4.10;;
32894;SDS011;19251;49.484;8.260;2023-07-02T03:12:09;5.25;;;3.90;;
32894;SDS011;19251;49.484;8.260;2023-07-02T03:17:12;6.87;;;4.30;;
32894;SDS011;19251;49.484;8.260;2023-07-02T03:22:14;8.07;;;4.57;;
32894;SDS011;19251;49.484;8.260;2023-07-02T03:27:17;6.70;;;4.43;;
32894;SDS011;19251;49.484;8.260;2023-07-02T03:32:19;7.10;;;4.40;;
32894;SDS011;19251;49.484;8.260;2023-07-02T03:37:21;8.20;;;5.07;;
32894;SDS011;19251;49.484;8.260;2023-07-02T03:42:23;12.35;;;5.25;;
32894;SDS011;19251;49.484;8.260;2023-07-02T03:47:25;6.07;;;4.07;;
32894;SDS011;19251;49.484;8.260;2023-07-02T03:52:28;15.38;;;4.87;;
32894;SDS011;19251;49.484;8.260;2023-07-02T03:57:30;6.90;;;5.05;;
32894;SDS011;19251;49.484;8.260;2023-07-02T04:07:35;7.55;;;5.05;;
32894;SDS011;19251;49.484;8.260;2023-07-02T04:12:37;10.35;;;5.37;;
32894;SDS011;19251;49.484;8.260;2023-07-02T04:17:39;10.25;;;4.93;;
32894;SDS011;19251;49.484;8.260;2023-07-02T04:22:41;8.48;;;4.87;;
32894;SDS011;19251;49.484;8.260;2023-07-02T04:27:43;9.90;;;4.85;;
32894;SDS011;19251;49.484;8.260;2023-07-02T04:32:52;8.18;;;4.97;;
32894;SDS011;19251;49.484;8.260;2023-07-02T04:37:54;8.43;;;5.60;;
32894;SDS011;19251;49.484;8.260;2023-07-02T04:42:56;11.27;;;5.68;;
32894;SDS011;19251;49.484;8.260;2023-07-02T04:48:02;14.48;;;6.22;;
32894;SDS011;19251;49.484;8.260;2023-07-02T04:53:05;11.20;;;6.22;;
32894;SDS011;19251;49.484;8.260;2023-07-02T04:58:07;15.05;;;7.65;;
32894;SDS011;19251;49.484;8.260;2023-07-02T05:03:09;14.98;;;8.00;;
32894;SDS011;19251;49.484;8.260;2023-07-02T05:08:11;18.62;;;7.50;;
32894;SDS011;19251;49.484;8.260;2023-07-02T05:13:13;19.52;;;9.70;;
32894;SDS011;19251;49.484;8.260;2023-07-02T05:18:16;12.88;;;8.45;;
32894;SDS011;19251;49.484;8.260;2023-07-02T05:23:18;22.70;;;9.35;;
32894;SDS011;19251;49.484;8.260;2023-07-02T05:28:20;20.02;;;10.02;;
32894;SDS011;19251;49.484;8.260;2023-07-02T05:33:22;23.40;;;10.02;;
32894;SDS011;19251;49.484;8.260;2023-07-02T05:38:24;18.67;;;10.23;;
32894;SDS011;19251;49.484;8.260;2023-07-02T05:43:26;16.17;;;9.02;;
32894;SDS011;19251;49.484;8.260;2023-07-02T05:48:28;17.12;;;10.43;;
32894;SDS011;19251;49.484;8.260;2023-07-02T05:53:30;24.27;;;13.10;;
32894;SDS011;19251;49.484;8.260;2023-07-02T05:58:33;20.52;;;12.40;;
32894;SDS011;19251;49.484;8.260;2023-07-02T06:03:51;19.67;;;10.80;;
32894;SDS011;19251;49.484;8.260;2023-07-02T06:08:53;20.12;;;11.50;;
32894;SDS011;19251;49.484;8.260;2023-07-02T06:13:55;19.42;;;10.68;;
32894;SDS011;19251;49.484;8.260;2023-07-02T06:18:58;21.65;;;12.95;;
32894;SDS011;19251;49.484;8.260;2023-07-02T06:24:00;26.62;;;14.35;;
32894;SDS011;19251;49.484;8.260;2023-07-02T06:29:04;22.70;;;13.52;;
32894;SDS011;19251;49.484;8.260;2023-07-02T06:34:06;20.75;;;12.25;;
32894;SDS011;19251;49.484;8.260;2023-07-02T06:39:10;22.23;;;12.37;;
32894;SDS011;19251;49.484;8.260;2023-07-02T06:44:12;19.73;;;12.63;;
32894;SDS011;19251;49.484;8.260;2023-07-02T06:49:14;21.27;;;12.65;;
32894;SDS011;19251;49.484;8.260;2023-07-02T06:59:19;22.73;;;11.88;;
32894;SDS011;19251;49.484;8.260;2023-07-02T07:04:22;36.72;;;14.00;;
32894;SDS011;19251;49.484;8.260;2023-07-02T07:09:25;18.75;;;12.52;;
32894;SDS011;19251;49.484;8.260;2023-07-02T07:14:27;24.75;;;15.13;;
32894;SDS011;19251;49.484;8.260;2023-07-02T07:19:29;23.52;;;15.02;;
32894;SDS011;19251;49.484;8.260;2023-07-02T07:24:31;23.10;;;13.90;;
32894;SDS011;19251;49.484;8.260;2023-07-02T07:29:34;30.33;;;17.65;;
32894;SDS011;19251;49.484;8.260;2023-07-02T07:34:36;35.67;;;15.38;;
32894;SDS011;19251;49.484;8.260;2023-07-02T07:39:38;25.75;;;15.00;;
32894;SDS011;19251;49.484;8.260;2023-07-02T07:44:40;28.00;;;16.52;;
32894;SDS011;19251;49.484;8.260;2023-07-02T07:49:42;28.87;;;18.00;;
32894;SDS011;19251;49.484;8.260;2023-07-02T07:54:44;27.05;;;17.10;;
32894;SDS011;19251;49.484;8.260;2023-07-02T07:59:47;29.85;;;16.30;;
32894;SDS011;19251;49.484;8.260;2023-07-02T08:04:49;28.87;;;16.20;;
32894;SDS011;19251;49.484;8.260;2023-07-02T08:09:51;31.27;;;16.42;;
32894;SDS011;19251;49.484;8.260;2023-07-02T08:14:53;33.22;;;17.42;;
32894;SDS011;19251;49.484;8.260;2023-07-02T08:19:55;30.62;;;18.05;;
32894;SDS011;19251;49.484;8.260;2023-07-02T08:30:00;31.12;;;18.87;;
32894;SDS011;19251;49.484;8.260;2023-07-02T08:35:02;27.35;;;17.40;;
32894;SDS011;19251;49.484;8.260;2023-07-02T08:40:05;37.97;;;20.73;;
32894;SDS011;19251;49.484;8.260;2023-07-02T08:45:08;30.55;;;16.58;;
32894;SDS011;19251;49.484;8.260;2023-07-02T08:50:12;25.40;;;17.80;;
32894;SDS011;19251;49.484;8.260;2023-07-02T08:55:15;29.40;;;16.77;;
32894;SDS011;19251;49.484;8.260;2023-07-02T09:05:20;25.88;;;16.55;;
32894;SDS011;19251;49.484;8.260;2023-07-02T09:10:28;28.48;;;18.00;;
32894;SDS011;19251;49.484;8.260;2023-07-02T09:15:39;25.55;;;16.58;;
32894;SDS011;19251;49.484;8.260;2023-07-02T09:20:42;30.77;;;15.73;;
32894;SDS011;19251;49.484;8.260;2023-07-02T09:25:45;25.42;;;16.40;;
32894;SDS011;19251;49.484;8.260;2023-07-02T09:30:57;26.73;;;17.67;;
32894;SDS011;19251;49.484;8.260;2023-07-02T09:36:00;28.50;;;17.50;;
32894;SDS011;19251;49.484;8.260;2023-07-02T09:41:02;26.48;;;16.62;;
32894;SDS011;19251;49.484;8.260;2023-07-02T09:46:04;30.85;;;20.02;;
32894;SDS011;19251;49.484;8.260;2023-07-02T09:51:08;32.50;;;18.50;;
32894;SDS011;19251;49.484;8.260;2023-07-02T09:56:10;37.30;;;20.15;;
32894;SDS011;19251;49.484;8.260;2023-07-02T10:06:15;34.65;;;21.15;;
32894;SDS011;19251;49.484;8.260;2023-07-02T10:16:19;33.72;;;18.60;;
32894;SDS011;19251;49.484;8.260;2023-07-02T10:21:22;34.00;;;18.67;;
32894;SDS011;19251;49.484;8.260;2023-07-02T10:26:24;29.48;;;19.67;;
32894;SDS011;19251;49.484;8.260;2023-07-02T10:31:28;38.38;;;21.35;;
32894;SDS011;19251;49.484;8.260;2023-07-02T10:36:31;32.40;;;18.65;;
32894;SDS011;19251;49.484;8.260;2023-07-02T10:46:48;36.38;;;22.37;;
32894;SDS011;19251;49.484;8.260;2023-07-02T10:51:57;32.80;;;20.88;;
32894;SDS011;19251;49.484;8.260;2023-07-02T10:57:05;35.25;;;19.15;;
32894;SDS011;19251;49.484;8.260;2023-07-02T11:02:08;42.05;;;20.30;;
32894;SDS011;19251;49.484;8.260;2023-07-02T11:07:13;31.73;;;20.92;;
32894;SDS011;19251;49.484;8.260;2023-07-02T11:12:15;33.42;;;19.87;;
32894;SDS011;19251;49.484;8.260;2023-07-02T11:17:24;38.92;;;20.27;;
32894;SDS011;19251;49.484;8.260;2023-07-02T11:22:31;37.63;;;19.45;;
32894;SDS011;19251;49.484;8.260;2023-07-02T11:27:38;24.58;;;16.85;;
32894;SDS011;19251;49.484;8.260;2023-07-02T11:32:47;27.55;;;18.02;;
32894;SDS011;19251;49.484;8.260;2023-07-02T11:37:50;32.17;;;18.87;;
32894;SDS011;19251;49.484;8.260;2023-07-02T11:42:52;28.80;;;17.08;;
32894;SDS011;19251;49.484;8.260;2023-07-02T11:47:55;31.37;;;18.45;;
32894;SDS011;19251;49.484;8.260;2023-07-02T11:52:57;27.75;;;18.08;;
32894;SDS011;19251;49.484;8.260;2023-07-02T12:03:01;41.08;;;20.10;;
32894;SDS011;19251;49.484;8.260;2023-07-02T12:08:03;36.15;;;18.40;;
32894;SDS011;19251;49.484;8.260;2023-07-02T12:13:06;25.83;;;17.48;;
32894;SDS011;19251;49.484;8.260;2023-07-02T12:23:10;33.17;;;17.63;;
32894;SDS011;19251;49.484;8.260;2023-07-02T12:28:14;31.37;;;17.95;;
32894;SDS011;19251;49.484;8.260;2023-07-02T12:33:16;31.67;;;19.98;;
32894;SDS011;19251;49.484;8.260;2023-07-02T12:38:21;29.98;;;18.02;;
32894;SDS011;19251;49.484;8.260;2023-07-02T12:43:23;33.40;;;19.92;;
32894;SDS011;19251;49.484;8.260;2023-07-02T12:48:25;31.92;;;17.77;;
32894;SDS011;19251;49.484;8.260;2023-07-02T12:53:28;30.08;;;17.65;;
32894;SDS011;19251;49.484;8.260;2023-07-02T12:58:30;34.58;;;19.87;;
32894;SDS011;19251;49.484;8.260;2023-07-02T13:03:32;30.20;;;19.92;;
32894;SDS011;19251;49.484;8.260;2023-07-02T13:08:34;27.87;;;18.73;;
32894;SDS011;19251;49.484;8.260;2023-07-02T13:13:37;30.00;;;18.77;;
32894;SDS011;19251;49.484;8.260;2023-07-02T13:18:39;32.17;;;18.42;;
32894;SDS011;19251;49.484;8.260;2023-07-02T13:23:41;32.63;;;20.65;;
32894;SDS011;19251;49.484;8.260;2023-07-02T13:28:43;34.65;;;20.05;;
32894;SDS011;19251;49.484;8.260;2023-07-02T13:33:48;37.00;;;19.40;;
32894;SDS011;19251;49.484;8.260;2023-07-02T13:38:51;31.23;;;19.30;;
32894;SDS011;19251;49.484;8.260;2023-07-02T13:43:54;30.23;;;18.92;;
32894;SDS011;19251;49.484;8.260;2023-07-02T13:48:56;32.00;;;19.90;;
32894;SDS011;19251;49.484;8.260;2023-07-02T13:53:58;32.22;;;19.12;;
32894;SDS011;19251;49.484;8.260;2023-07-02T13:59:00;33.00;;;19.52;;
32894;SDS011;19251;49.484;8.260;2023-07-02T14:04:04;31.50;;;19.73;;
32894;SDS011;19251;49.484;8.260;2023-07-02T14:09:06;27.35;;;17.98;;
32894;SDS011;19251;49.484;8.260;2023-07-02T14:14:08;23.30;;;16.35;;
32894;SDS011;19251;49.484;8.260;2023-07-02T14:19:10;29.37;;;19.05;;
32894;SDS011;19251;49.484;8.260;2023-07-02T14:24:14;34.45;;;19.70;;
32894;SDS011;19251;49.484;8.260;2023-07-02T14:29:16;28.20;;;17.08;;
32894;SDS011;19251;49.484;8.260;2023-07-02T14:34:19;29.15;;;18.08;;
32894;SDS011;19251;49.484;8.260;2023-07-02T14:39:21;27.60;;;20.02;;
32894;SDS011;19251;49.484;8.260;2023-07-02T14:44:24;31.85;;;20.92;;
32894;SDS011;19251;49.484;8.260;2023-07-02T14:49:27;36.55;;;19.58;;
32894;SDS011;19251;49.484;8.260;2023-07-02T14:54:29;33.72;;;17.95;;
32894;SDS011;19251;49.484;8.260;2023-07-02T14:59:31;30.02;;;17.55;;
32894;SDS011;19251;49.484;8.260;2023-07-02T15:04:34;33.20;;;19.23;;
32894;SDS011;19251;49.484;8.260;2023-07-02T15:09:36;29.70;;;18.65;;
32894;SDS011;19251;49.484;8.260;2023-07-02T15:14:39;30.25;;;18.80;;
32894;SDS011;19251;49.484;8.260;2023-07-02T15:19:41;28.87;;;18.12;;
32894;SDS011;19251;49.484;8.260;2023-07-02T15:24:43;29.95;;;19.33;;
32894;SDS011;19251;49.484;8.260;2023-07-02T15:29:45;31.85;;;19.37;;
32894;SDS011;19251;49.484;8.260;2023-07-02T15:34:47;30.70;;;18.55;;
32894;SDS011;19251;49.484;8.260;2023-07-02T15:39:49;25.85;;;17.65;;
32894;SDS011;19251;49.484;8.260;2023-07-02T15:44:52;31.20;;;19.50;;
32894;SDS011;19251;49.484;8.260;2023-07-02T15:49:54;31.70;;;18.95;;
32894;SDS011;19251;49.484;8.260;2023-07-02T15:54:56;23.75;;;16.45;;
32894;SDS011;19251;49.484;8.260;2023-07-02T15:59:58;28.50;;;17.90;;
32894;SDS011;19251;49.484;8.260;2023-07-02T16:05:00;31.00;;;18.58;;
32894;SDS011;19251;49.484;8.260;2023-07-02T16:10:03;26.08;;;19.40;;
32894;SDS011;19251;49.484;8.260;2023-07-02T16:15:06;26.77;;;18.37;;
32894;SDS011;19251;49.484;8.260;2023-07-02T16:20:09;31.02;;;18.35;;
32894;SDS011;19251;49.484;8.260;2023-07-02T16:25:12;32.40;;;18.27;;
32894;SDS011;19251;49.484;8.260;2023-07-02T16:30:14;27.27;;;18.77;;
32894;SDS011;19251;49.484;8.260;2023-07-02T16:35:16;34.45;;;18.37;;
32894;SDS011;19251;49.484;8.260;2023-07-02T16:40:18;30.15;;;18.52;;
32894;SDS011;19251;49.484;8.260;2023-07-02T16:45:20;26.85;;;16.80;;
32894;SDS011;19251;49.484;8.260;2023-07-02T16:50:23;25.10;;;17.37;;
32894;SDS011;19251;49.484;8.260;2023-07-02T16:55:25;25.83;;;16.92;;
32894;SDS011;19251;49.484;8.260;2023-07-02T17:00:31;29.65;;;17.80;;
32894;SDS011;19251;49.484;8.260;2023-07-02T17:05:33;34.00;;;18.35;;
32894;SDS011;19251;49.484;8.260;2023-07-02T17:10:35;29.40;;;18.70;;
32894;SDS011;19251;49.484;8.260;2023-07-02T17:15:37;25.85;;;17.37;;
32894;SDS011;19251;49.484;8.260;2023-07-02T17:20:39;27.62;;;17.58;;
32894;SDS011;19251;49.484;8.260;2023-07-02T17:25:42;28.48;;;17.20;;
32894;SDS011;19251;49.484;8.260;2023-07-02T17:30:44;26.33;;;16.25;;
32894;SDS011;19251;49.484;8.260;2023-07-02T17:35:48;25.75;;;16.35;;
32894;SDS011;19251;49.484;8.260;2023-07-02T17:40:51;27.30;;;16.20;;
32894;SDS011;19251;49.484;8.260;2023-07-02T17:45:53;31.25;;;17.73;;
32894;SDS011;19251;49.484;8.260;2023-07-02T17:50:57;38.63;;;17.90;;
32894;SDS011;19251;49.484;8.260;2023-07-02T17:56:01;27.23;;;15.85;;
32894;SDS011;19251;49.484;8.260;2023-07-02T18:01:03;29.48;;;16.85;;
32894;SDS011;19251;49.484;8.260;2023-07-02T18:06:05;23.42;;;14.68;;
32894;SDS011;19251;49.484;8.260;2023-07-02T18:11:08;28.52;;;15.43;;
32894;SDS011;19251;49.484;8.260;2023-07-02T18:16:11;26.48;;;14.30;;
32894;SDS011;19251;49.484;8.260;2023-07-02T18:21:13;21.42;;;14.27;;
32894;SDS011;19251;49.484;8.260;2023-07-02T18:26:15;25.70;;;14.40;;
32894;SDS011;19251;49.484;8.260;2023-07-02T18:31:18;36.10;;;16.17;;
32894;SDS011;19251;49.484;8.260;2023-07-02T18:36:21;30.20;;;14.98;;
32894;SDS011;19251;49.484;8.260;2023-07-02T18:46:25;21.48;;;12.40;;
32894;SDS011;19251;49.484;8.260;2023-07-02T18:51:27;30.55;;;13.73;;
32894;SDS011;19251;49.484;8.260;2023-07-02T18:56:29;23.73;;;13.77;;
32894;SDS011;19251;49.484;8.260;2023-07-02T19:01:32;23.90;;;12.98;;
32894;SDS011;19251;49.484;8.260;2023-07-02T19:06:34;25.10;;;12.43;;
32894;SDS011;19251;49.484;8.260;2023-07-02T19:11:37;20.12;;;12.23;;
32894;SDS011;19251;49.484;8.260;2023-07-02T19:16:39;22.25;;;12.00;;
32894;SDS011;19251;49.484;8.260;2023-07-02T19:26:45;28.58;;;13.35;;
32894;SDS011;19251;49.484;8.260;2023-07-02T19:31:49;23.55;;;11.23;;
32894;SDS011;19251;49.484;8.260;2023-07-02T19:36:51;29.08;;;12.95;;
32894;SDS011;19251;49.484;8.260;2023-07-02T19:41:53;22.58;;;12.23;;
32894;SDS011;19251;49.484;8.260;2023-07-02T19:46:56;26.00;;;11.60;;
32894;SDS011;19251;49.484;8.260;2023-07-02T19:51:58;19.67;;;11.12;;
32894;SDS011;19251;49.484;8.260;2023-07-02T19:57:00;21.58;;;10.77;;
32894;SDS011;19251;49.484;8.260;2023-07-02T20:02:03;23.02;;;11.55;;
32894;SDS011;19251;49.484;8.260;2023-07-02T20:07:05;18.98;;;10.40;;
32894;SDS011;19251;49.484;8.260;2023-07-02T20:12:11;16.05;;;10.07;;
32894;SDS011;19251;49.484;8.260;2023-07-02T20:17:14;23.10;;;10.73;;
32894;SDS011;19251;49.484;8.260;2023-07-02T20:22:18;20.62;;;12.07;;
32894;SDS011;19251;49.484;8.260;2023-07-02T20:27:23;23.50;;;11.00;;
32894;SDS011;19251;49.484;8.260;2023-07-02T20:32:26;18.10;;;10.55;;
32894;SDS011;19251;49.484;8.260;2023-07-02T20:37:28;19.37;;;11.05;;
32894;SDS011;19251;49.484;8.260;2023-07-02T20:42:32;20.25;;;10.55;;
32894;SDS011;19251;49.484;8.260;2023-07-02T20:47:35;18.27;;;9.85;;
32894;SDS011;19251;49.484;8.260;2023-07-02T20:52:38;21.67;;;10.23;;
32894;SDS011;19251;49.484;8.260;2023-07-02T20:57:40;22.48;;;11.65;;
32894;SDS011;19251;49.484;8.260;2023-07-02T21:02:44;26.77;;;11.00;;
32894;SDS011;19251;49.484;8.260;2023-07-02T21:07:46;22.77;;;10.18;;
32894;SDS011;19251;49.484;8.260;2023-07-02T21:12:50;22.10;;;11.12;;
32894;SDS011;19251;49.484;8.260;2023-07-02T21:17:52;27.05;;;12.98;;
32894;SDS011;19251;49.484;8.260;2023-07-02T21:22:54;19.23;;;10.90;;
32894;SDS011;19251;49.484;8.260;2023-07-02T21:27:57;17.50;;;9.65;;
32894;SDS011;19251;49.484;8.260;2023-07-02T21:32:59;16.83;;;8.98;;
32894;SDS011;19251;49.484;8.260;2023-07-02T21:38:04;18.80;;;10.00;;
32894;SDS011;19251;49.484;8.260;2023-07-02T21:43:06;20.65;;;10.05;;
32894;SDS011;19251;49.484;8.260;2023-07-02T21:48:08;23.77;;;11.15;;
32894;SDS011;19251;49.484;8.260;2023-07-02T21:53:10;17.33;;;9.25;;
32894;SDS011;19251;49.484;8.260;2023-07-02T21:58:13;22.52;;;10.77;;
32894;SDS011;19251;49.484;8.260;2023-07-02T22:08:17;17.83;;;9.32;;
32894;SDS011;19251;49.484;8.260;2023-07-02T22:13:21;17.85;;;10.15;;
32894;SDS011;19251;49.484;8.260;2023-07-02T22:18:23;17.50;;;9.35;;
32894;SDS011;19251;49.484;8.260;2023-07-02T22:23:25;16.95;;;9.43;;
32894;SDS011;19251;49.484;8.260;2023-07-02T22:28:27;22.87;;;10.77;;
32894;SDS011;19251;49.484;8.260;2023-07-02T22:33:30;17.85;;;8.73;;
32894;SDS011;19251;49.484;8.260;2023-07-02T22:38:32;20.70;;;10.55;;
32894;SDS011;19251;49.484;8.260;2023-07-02T22:43:34;19.37;;;10.48;;
32894;SDS011;19251;49.484;8.260;2023-07-02T22:48:36;19.27;;;9.68;;
32894;SDS011;19251;49.484;8.260;2023-07-02T22:53:39;19.30;;;9.50;;
32894;SDS011;19251;49.484;8.260;2023-07-02T22:58:43;19.17;;;9.50;;
32894;SDS011;19251;49.484;8.260;2023-07-02T23:03:45;20.05;;;9.80;;
32894;SDS011;19251;49.484;8.260;2023-07-02T23:13:50;19.73;;;9.75;;
32894;SDS011;19251;49.484;8.260;2023-07-02T23:18:52;18.95;;;11.02;;
32894;SDS011;19251;49.484;8.260;2023-07-02T23:23:55;19.33;;;11.05;;
32894;SDS011;19251;49.484;8.260;2023-07-02T23:28:59;25.62;;;11.38;;
32894;SDS011;19251;49.484;8.260;2023-07-02T23:34:01;17.58;;;9.63;;
32894;SDS011;19251;49.484;8.260;2023-07-02T23:39:04;20.80;;;9.88;;
32894;SDS011;19251;49.484;8.260;2023-07-02T23:44:07;16.12;;;9.43;;
32894;SDS011;19251;49.484;8.260;2023-07-02T23:49:10;14.77;;;9.20;;
32894;SDS011;19251;49.484;8.260;2023-07-02T23:54:12;21.12;;;10.35;;
32894;SDS011;19251;49.484;8.260;2023-07-02T23:59:15;17.67;;;9.68;;
